sensor_id;sensor_type;location;lat;lon;timestamp;pressure;altitude;pressure_sealevel;temperature;humidity
52797;BME280;38666;43.348;12.584;2023-06-14T07:02:53;95266.84;;;18.38;100.00
52797;BME280;38666;43.348;12.584;2023-06-14T07:05:20;95259.59;;;18.59;100.00
52797;BME280;38666;43.348;12.584;2023-06-14T07:07:45;95267.88;;;18.78;100.00
52797;BME280;38666;43.348;12.584;2023-06-14T07:10:11;95269.13;;;19.11;100.00
52797;BME280;38666;43.348;12.584;2023-06-14T07:12:36;95278.59;;;19.38;100.00
52797;BME280;38666;43.348;12.584;2023-06-14T07:15:05;95272.25;;;19.47;100.00
52797;BME280;38666;43.348;12.584;2023-06-14T07:17:31;95276.19;;;20.04;100.00
52797;BME280;38666;43.348;12.584;2023-06-14T07:19:57;95287.88;;;20.33;100.00
52797;BME280;38666;43.348;12.584;2023-06-14T07:22:23;95287.69;;;20.37;97.58
52797;BME280;38666;43.348;12.584;2023-06-14T07:24:48;95286.22;;;20.26;98.14
52797;BME280;38666;43.348;12.584;2023-06-14T07:27:14;95285.09;;;20.48;98.12
52797;BME280;38666;43.348;12.584;2023-06-14T07:29:39;95287.69;;;20.37;94.29
52797;BME280;38666;43.348;12.584;2023-06-14T07:32:05;95285.41;;;20.11;95.32
52797;BME280;38666;43.348;12.584;2023-06-14T07:34:31;95287.00;;;19.53;98.64
52797;BME280;38666;43.348;12.584;2023-06-14T07:36:57;95283.53;;;19.34;99.98
52797;BME280;38666;43.348;12.584;2023-06-14T07:39:22;95291.72;;;19.28;99.33
52797;BME280;38666;43.348;12.584;2023-06-14T07:41:48;95291.00;;;19.43;99.33
52797;BME280;38666;43.348;12.584;2023-06-14T07:44:14;95293.72;;;19.61;99.79
52797;BME280;38666;43.348;12.584;2023-06-14T07:46:39;95293.09;;;19.57;96.41
52797;BME280;38666;43.348;12.584;2023-06-14T07:49:05;95294.81;;;19.55;98.90
52797;BME280;38666;43.348;12.584;2023-06-14T07:51:31;95302.88;;;19.68;99.56
52797;BME280;38666;43.348;12.584;2023-06-14T07:53:59;95291.25;;;19.64;98.37
52797;BME280;38666;43.348;12.584;2023-06-14T07:56:26;95294.34;;;19.56;97.92
52797;BME280;38666;43.348;12.584;2023-06-14T07:58:54;95295.34;;;19.68;97.63
52797;BME280;38666;43.348;12.584;2023-06-14T08:01:20;95292.06;;;19.79;97.09
52797;BME280;38666;43.348;12.584;2023-06-14T08:03:45;95296.19;;;19.59;96.99
52797;BME280;38666;43.348;12.584;2023-06-14T08:06:11;95289.84;;;19.59;96.44
52797;BME280;38666;43.348;12.584;2023-06-14T08:08:37;95286.56;;;19.45;96.31
52797;BME280;38666;43.348;12.584;2023-06-14T13:51:52;95226.44;;;22.62;78.54
52797;BME280;38666;43.348;12.584;2023-06-14T13:54:19;95222.28;;;22.78;80.05
52797;BME280;38666;43.348;12.584;2023-06-14T13:56:46;95227.66;;;22.61;78.91
52797;BME280;38666;43.348;12.584;2023-06-14T13:59:12;95237.16;;;22.48;77.74
52797;BME280;38666;43.348;12.584;2023-06-14T14:01:37;95240.09;;;22.39;77.03
52797;BME280;38666;43.348;12.584;2023-06-14T14:04:04;95239.72;;;22.05;77.56
52797;BME280;38666;43.348;12.584;2023-06-14T14:06:30;95243.88;;;21.73;77.87
52797;BME280;38666;43.348;12.584;2023-06-14T14:08:55;95247.78;;;21.61;78.72
52797;BME280;38666;43.348;12.584;2023-06-14T14:11:21;95244.16;;;21.55;79.95
52797;BME280;38666;43.348;12.584;2023-06-14T14:13:47;95251.94;;;21.50;85.70
52797;BME280;38666;43.348;12.584;2023-06-14T14:16:13;95246.28;;;21.45;85.28
52797;BME280;38666;43.348;12.584;2023-06-14T14:18:38;95257.38;;;21.24;88.25
52797;BME280;38666;43.348;12.584;2023-06-14T14:21:04;95253.84;;;21.08;90.97
